sensor_id;sensor_type;location;lat;lon;timestamp;P1;durP1;ratioP1;P2;durP2;ratioP2
71753;SDS011;59593;51.716;7.016;2023-06-22T00:00:46;15.50;;;13.10;;
71753;SDS011;59593;51.716;7.016;2023-06-22T00:03:12;15.75;;;13.35;;
71753;SDS011;59593;51.716;7.016;2023-06-22T00:05:37;14.50;;;13.00;;
71753;SDS011;59593;51.716;7.016;2023-06-22T00:08:03;14.40;;;12.80;;
71753;SDS011;59593;51.716;7.016;2023-06-22T00:10:32;14.23;;;12.75;;
71753;SDS011;59593;51.716;7.016;2023-06-22T00:12:57;14.48;;;12.90;;
71753;SDS011;59593;51.716;7.016;2023-06-22T00:15:23;15.05;;;13.50;;
71753;SDS011;59593;51.716;7.016;2023-06-22T00:17:49;18.15;;;13.75;;
71753;SDS011;59593;51.716;7.016;2023-06-22T00:20:16;14.55;;;12.80;;
71753;SDS011;59593;51.716;7.016;2023-06-22T00:22:43;14.68;;;13.07;;
71753;SDS011;59593;51.716;7.016;2023-06-22T00:25:09;15.48;;;13.32;;
71753;SDS011;59593;51.716;7.016;2023-06-22T00:27:35;14.88;;;13.32;;
71753;SDS011;59593;51.716;7.016;2023-06-22T00:30:01;14.32;;;12.93;;
71753;SDS011;59593;51.716;7.016;2023-06-22T00:32:27;15.45;;;13.60;;
71753;SDS011;59593;51.716;7.016;2023-06-22T00:34:53;16.85;;;13.63;;
71753;SDS011;59593;51.716;7.016;2023-06-22T00:37:19;17.00;;;13.70;;
71753;SDS011;59593;51.716;7.016;2023-06-22T00:39:54;14.98;;;13.45;;
71753;SDS011;59593;51.716;7.016;2023-06-22T00:42:20;16.52;;;13.80;;
71753;SDS011;59593;51.716;7.016;2023-06-22T00:44:46;15.57;;;13.98;;
71753;SDS011;59593;51.716;7.016;2023-06-22T00:47:15;16.33;;;14.73;;
71753;SDS011;59593;51.716;7.016;2023-06-22T00:49:42;18.38;;;14.52;;
71753;SDS011;59593;51.716;7.016;2023-06-22T00:52:08;16.15;;;13.98;;
71753;SDS011;59593;51.716;7.016;2023-06-22T00:54:42;16.52;;;14.73;;
71753;SDS011;59593;51.716;7.016;2023-06-22T00:57:14;16.30;;;14.30;;
71753;SDS011;59593;51.716;7.016;2023-06-22T00:59:43;15.90;;;13.82;;
71753;SDS011;59593;51.716;7.016;2023-06-22T01:02:10;15.30;;;13.77;;
71753;SDS011;59593;51.716;7.016;2023-06-22T01:04:37;18.65;;;14.98;;
71753;SDS011;59593;51.716;7.016;2023-06-22T01:07:34;17.58;;;14.90;;
71753;SDS011;59593;51.716;7.016;2023-06-22T01:10:08;16.95;;;15.15;;
71753;SDS011;59593;51.716;7.016;2023-06-22T01:12:55;15.57;;;14.07;;
71753;SDS011;59593;51.716;7.016;2023-06-22T01:15:34;15.27;;;13.68;;
71753;SDS011;59593;51.716;7.016;2023-06-22T01:18:05;15.10;;;13.60;;
71753;SDS011;59593;51.716;7.016;2023-06-22T01:20:33;15.68;;;14.15;;
71753;SDS011;59593;51.716;7.016;2023-06-22T01:26:05;18.10;;;16.30;;
71753;SDS011;59593;51.716;7.016;2023-06-22T01:31:08;17.23;;;15.32;;
71753;SDS011;59593;51.716;7.016;2023-06-22T01:33:37;17.20;;;14.85;;
71753;SDS011;59593;51.716;7.016;2023-06-22T01:36:06;17.45;;;15.75;;
71753;SDS011;59593;51.716;7.016;2023-06-22T01:38:33;18.63;;;15.65;;
71753;SDS011;59593;51.716;7.016;2023-06-22T01:41:00;17.52;;;15.68;;
71753;SDS011;59593;51.716;7.016;2023-06-22T01:43:27;17.42;;;15.73;;
71753;SDS011;59593;51.716;7.016;2023-06-22T01:45:53;18.38;;;16.48;;
71753;SDS011;59593;51.716;7.016;2023-06-22T01:48:20;18.35;;;15.82;;
71753;SDS011;59593;51.716;7.016;2023-06-22T01:50:47;18.27;;;16.48;;
71753;SDS011;59593;51.716;7.016;2023-06-22T01:53:13;17.90;;;16.20;;
71753;SDS011;59593;51.716;7.016;2023-06-22T01:55:38;18.08;;;16.13;;
71753;SDS011;59593;51.716;7.016;2023-06-22T01:58:04;19.65;;;17.00;;
71753;SDS011;59593;51.716;7.016;2023-06-22T02:00:34;19.52;;;16.90;;
71753;SDS011;59593;51.716;7.016;2023-06-22T02:03:26;19.77;;;16.83;;
71753;SDS011;59593;51.716;7.016;2023-06-22T02:05:53;19.80;;;17.70;;
71753;SDS011;59593;51.716;7.016;2023-06-22T02:08:28;19.77;;;17.17;;
71753;SDS011;59593;51.716;7.016;2023-06-22T02:11:02;20.08;;;18.02;;
71753;SDS011;59593;51.716;7.016;2023-06-22T02:13:28;19.58;;;17.45;;
71753;SDS011;59593;51.716;7.016;2023-06-22T02:15:55;18.20;;;16.30;;
71753;SDS011;59593;51.716;7.016;2023-06-22T02:18:21;20.17;;;16.23;;
71753;SDS011;59593;51.716;7.016;2023-06-22T02:20:47;18.17;;;16.45;;
71753;SDS011;59593;51.716;7.016;2023-06-22T02:23:12;19.73;;;17.55;;
71753;SDS011;59593;51.716;7.016;2023-06-22T02:25:38;20.45;;;17.25;;
71753;SDS011;59593;51.716;7.016;2023-06-22T02:28:04;18.98;;;17.08;;
71753;SDS011;59593;51.716;7.016;2023-06-22T02:30:30;19.05;;;17.15;;
71753;SDS011;59593;51.716;7.016;2023-06-22T02:32:55;20.38;;;18.17;;
71753;SDS011;59593;51.716;7.016;2023-06-22T02:35:27;19.02;;;17.02;;
71753;SDS011;59593;51.716;7.016;2023-06-22T02:37:57;21.30;;;17.90;;
71753;SDS011;59593;51.716;7.016;2023-06-22T02:40:24;19.30;;;17.42;;
71753;SDS011;59593;51.716;7.016;2023-06-22T02:42:49;21.13;;;18.90;;
71753;SDS011;59593;51.716;7.016;2023-06-22T02:45:15;19.90;;;18.00;;
71753;SDS011;59593;51.716;7.016;2023-06-22T02:47:41;19.15;;;17.35;;
71753;SDS011;59593;51.716;7.016;2023-06-22T02:50:06;20.23;;;18.23;;
71753;SDS011;59593;51.716;7.016;2023-06-22T02:52:32;19.98;;;17.73;;
71753;SDS011;59593;51.716;7.016;2023-06-22T02:54:59;20.73;;;17.63;;
71753;SDS011;59593;51.716;7.016;2023-06-22T02:57:24;19.85;;;17.75;;
71753;SDS011;59593;51.716;7.016;2023-06-22T02:59:50;20.92;;;18.52;;
71753;SDS011;59593;51.716;7.016;2023-06-22T03:02:15;20.38;;;18.40;;
71753;SDS011;59593;51.716;7.016;2023-06-22T03:04:41;19.80;;;17.88;;
71753;SDS011;59593;51.716;7.016;2023-06-22T03:07:08;19.90;;;17.83;;
71753;SDS011;59593;51.716;7.016;2023-06-22T03:09:33;20.05;;;17.88;;
71753;SDS011;59593;51.716;7.016;2023-06-22T03:11:59;21.08;;;18.92;;
71753;SDS011;59593;51.716;7.016;2023-06-22T03:14:25;19.63;;;17.60;;
71753;SDS011;59593;51.716;7.016;2023-06-22T03:16:51;20.70;;;18.67;;
71753;SDS011;59593;51.716;7.016;2023-06-22T03:19:16;19.27;;;17.30;;
71753;SDS011;59593;51.716;7.016;2023-06-22T03:21:42;21.08;;;18.38;;
71753;SDS011;59593;51.716;7.016;2023-06-22T03:24:08;19.63;;;17.60;;
71753;SDS011;59593;51.716;7.016;2023-06-22T03:26:34;19.33;;;17.38;;
71753;SDS011;59593;51.716;7.016;2023-06-22T03:29:00;20.52;;;18.40;;
71753;SDS011;59593;51.716;7.016;2023-06-22T03:31:25;22.17;;;19.85;;
71753;SDS011;59593;51.716;7.016;2023-06-22T03:33:51;20.15;;;18.23;;
71753;SDS011;59593;51.716;7.016;2023-06-22T03:36:17;22.00;;;19.75;;
71753;SDS011;59593;51.716;7.016;2023-06-22T03:38:44;22.33;;;19.83;;
71753;SDS011;59593;51.716;7.016;2023-06-22T03:41:10;21.65;;;19.45;;
71753;SDS011;59593;51.716;7.016;2023-06-22T03:43:36;22.40;;;20.00;;
71753;SDS011;59593;51.716;7.016;2023-06-22T03:46:01;22.48;;;20.17;;
71753;SDS011;59593;51.716;7.016;2023-06-22T03:48:27;23.60;;;20.27;;
71753;SDS011;59593;51.716;7.016;2023-06-22T03:50:53;21.88;;;19.63;;
71753;SDS011;59593;51.716;7.016;2023-06-22T03:53:18;20.10;;;18.10;;
71753;SDS011;59593;51.716;7.016;2023-06-22T03:55:51;21.48;;;19.33;;
71753;SDS011;59593;51.716;7.016;2023-06-22T03:58:17;19.85;;;17.85;;
71753;SDS011;59593;51.716;7.016;2023-06-22T04:00:50;19.65;;;17.55;;
71753;SDS011;59593;51.716;7.016;2023-06-22T04:03:17;22.48;;;18.23;;
71753;SDS011;59593;51.716;7.016;2023-06-22T04:05:44;21.30;;;19.17;;
71753;SDS011;59593;51.716;7.016;2023-06-22T04:08:10;22.02;;;19.77;;
71753;SDS011;59593;51.716;7.016;2023-06-22T04:10:35;20.55;;;18.45;;
71753;SDS011;59593;51.716;7.016;2023-06-22T04:13:01;20.85;;;18.75;;
71753;SDS011;59593;51.716;7.016;2023-06-22T04:15:27;21.42;;;19.08;;
71753;SDS011;59593;51.716;7.016;2023-06-22T04:17:54;21.92;;;19.58;;
71753;SDS011;59593;51.716;7.016;2023-06-22T04:20:20;22.77;;;20.35;;
71753;SDS011;59593;51.716;7.016;2023-06-22T04:22:46;23.95;;;21.40;;
71753;SDS011;59593;51.716;7.016;2023-06-22T04:25:11;22.02;;;19.83;;
71753;SDS011;59593;51.716;7.016;2023-06-22T04:27:37;21.45;;;19.25;;
71753;SDS011;59593;51.716;7.016;2023-06-22T04:30:07;21.08;;;18.80;;
71753;SDS011;59593;51.716;7.016;2023-06-22T04:32:33;21.95;;;19.83;;
71753;SDS011;59593;51.716;7.016;2023-06-22T04:35:01;21.55;;;19.23;;
71753;SDS011;59593;51.716;7.016;2023-06-22T04:37:27;30.25;;;21.42;;
71753;SDS011;59593;51.716;7.016;2023-06-22T04:39:53;25.90;;;19.50;;
71753;SDS011;59593;51.716;7.016;2023-06-22T04:42:19;21.75;;;19.42;;
71753;SDS011;59593;51.716;7.016;2023-06-22T04:44:45;19.38;;;17.45;;
71753;SDS011;59593;51.716;7.016;2023-06-22T04:47:10;20.35;;;18.20;;
71753;SDS011;59593;51.716;7.016;2023-06-22T04:49:36;19.48;;;17.63;;
71753;SDS011;59593;51.716;7.016;2023-06-22T04:52:03;21.02;;;17.88;;
71753;SDS011;59593;51.716;7.016;2023-06-22T04:54:32;19.33;;;17.40;;
71753;SDS011;59593;51.716;7.016;2023-06-22T04:56:59;19.10;;;17.10;;
71753;SDS011;59593;51.716;7.016;2023-06-22T04:59:26;19.45;;;17.55;;
71753;SDS011;59593;51.716;7.016;2023-06-22T05:01:54;19.75;;;17.70;;
71753;SDS011;59593;51.716;7.016;2023-06-22T05:04:28;20.00;;;17.75;;
71753;SDS011;59593;51.716;7.016;2023-06-22T05:06:58;19.98;;;17.88;;
71753;SDS011;59593;51.716;7.016;2023-06-22T05:09:25;19.80;;;17.85;;
71753;SDS011;59593;51.716;7.016;2023-06-22T05:11:51;22.08;;;18.23;;
71753;SDS011;59593;51.716;7.016;2023-06-22T05:14:17;19.42;;;17.58;;
71753;SDS011;59593;51.716;7.016;2023-06-22T05:16:43;18.95;;;17.05;;
71753;SDS011;59593;51.716;7.016;2023-06-22T05:19:09;19.02;;;16.65;;
71753;SDS011;59593;51.716;7.016;2023-06-22T05:21:35;18.95;;;17.15;;
71753;SDS011;59593;51.716;7.016;2023-06-22T05:24:00;19.45;;;17.45;;
71753;SDS011;59593;51.716;7.016;2023-06-22T05:26:28;21.50;;;17.65;;
71753;SDS011;59593;51.716;7.016;2023-06-22T05:28:56;19.35;;;17.35;;
71753;SDS011;59593;51.716;7.016;2023-06-22T05:31:22;22.35;;;18.33;;
71753;SDS011;59593;51.716;7.016;2023-06-22T05:33:48;19.38;;;17.38;;
71753;SDS011;59593;51.716;7.016;2023-06-22T05:36:16;20.48;;;18.20;;
71753;SDS011;59593;51.716;7.016;2023-06-22T05:38:41;20.63;;;17.63;;
71753;SDS011;59593;51.716;7.016;2023-06-22T05:41:07;19.63;;;17.63;;
71753;SDS011;59593;51.716;7.016;2023-06-22T05:43:33;18.92;;;17.13;;
71753;SDS011;59593;51.716;7.016;2023-06-22T05:45:59;20.02;;;18.13;;
71753;SDS011;59593;51.716;7.016;2023-06-22T05:48:26;19.48;;;17.50;;
71753;SDS011;59593;51.716;7.016;2023-06-22T05:50:52;19.13;;;17.13;;
71753;SDS011;59593;51.716;7.016;2023-06-22T05:53:18;18.27;;;16.25;;
71753;SDS011;59593;51.716;7.016;2023-06-22T05:55:46;17.35;;;15.55;;
71753;SDS011;59593;51.716;7.016;2023-06-22T05:58:12;16.85;;;15.25;;
71753;SDS011;59593;51.716;7.016;2023-06-22T06:00:38;17.15;;;15.35;;
71753;SDS011;59593;51.716;7.016;2023-06-22T06:03:07;17.80;;;15.05;;
71753;SDS011;59593;51.716;7.016;2023-06-22T06:05:34;16.23;;;14.65;;
71753;SDS011;59593;51.716;7.016;2023-06-22T06:08:01;16.17;;;14.57;;
71753;SDS011;59593;51.716;7.016;2023-06-22T06:10:29;17.90;;;15.55;;
71753;SDS011;59593;51.716;7.016;2023-06-22T06:12:55;16.02;;;14.23;;
71753;SDS011;59593;51.716;7.016;2023-06-22T06:15:21;16.50;;;14.40;;
71753;SDS011;59593;51.716;7.016;2023-06-22T06:17:53;17.25;;;14.95;;
71753;SDS011;59593;51.716;7.016;2023-06-22T06:20:23;16.50;;;14.90;;
71753;SDS011;59593;51.716;7.016;2023-06-22T06:22:50;17.17;;;15.57;;
71753;SDS011;59593;51.716;7.016;2023-06-22T06:25:16;17.33;;;15.38;;
71753;SDS011;59593;51.716;7.016;2023-06-22T06:27:46;17.23;;;15.63;;
71753;SDS011;59593;51.716;7.016;2023-06-22T06:30:14;17.85;;;15.88;;
71753;SDS011;59593;51.716;7.016;2023-06-22T06:32:41;17.77;;;15.80;;
71753;SDS011;59593;51.716;7.016;2023-06-22T06:35:07;16.48;;;14.77;;
71753;SDS011;59593;51.716;7.016;2023-06-22T06:37:41;16.77;;;14.98;;
71753;SDS011;59593;51.716;7.016;2023-06-22T06:40:09;17.42;;;15.73;;
71753;SDS011;59593;51.716;7.016;2023-06-22T06:42:39;17.27;;;15.48;;
71753;SDS011;59593;51.716;7.016;2023-06-22T06:45:19;18.05;;;15.73;;
71753;SDS011;59593;51.716;7.016;2023-06-22T06:47:47;22.10;;;16.33;;
71753;SDS011;59593;51.716;7.016;2023-06-22T06:50:13;17.73;;;15.88;;
71753;SDS011;59593;51.716;7.016;2023-06-22T06:52:39;17.30;;;14.82;;
71753;SDS011;59593;51.716;7.016;2023-06-22T06:55:05;17.83;;;15.82;;
71753;SDS011;59593;51.716;7.016;2023-06-22T06:57:32;20.63;;;16.10;;
71753;SDS011;59593;51.716;7.016;2023-06-22T06:59:58;21.02;;;16.33;;
71753;SDS011;59593;51.716;7.016;2023-06-22T07:02:25;17.40;;;15.70;;
71753;SDS011;59593;51.716;7.016;2023-06-22T07:04:52;17.80;;;15.18;;
71753;SDS011;59593;51.716;7.016;2023-06-22T07:07:20;19.80;;;15.75;;
71753;SDS011;59593;51.716;7.016;2023-06-22T07:09:45;17.42;;;15.55;;
71753;SDS011;59593;51.716;7.016;2023-06-22T07:12:11;20.25;;;16.17;;
71753;SDS011;59593;51.716;7.016;2023-06-22T07:14:37;18.00;;;16.23;;
71753;SDS011;59593;51.716;7.016;2023-06-22T07:17:02;17.65;;;15.75;;
71753;SDS011;59593;51.716;7.016;2023-06-22T07:19:28;18.67;;;15.65;;
71753;SDS011;59593;51.716;7.016;2023-06-22T07:21:54;18.98;;;16.30;;
71753;SDS011;59593;51.716;7.016;2023-06-22T07:24:20;18.08;;;16.30;;
71753;SDS011;59593;51.716;7.016;2023-06-22T07:26:47;19.25;;;16.73;;
71753;SDS011;59593;51.716;7.016;2023-06-22T07:29:14;18.23;;;16.33;;
71753;SDS011;59593;51.716;7.016;2023-06-22T07:31:41;19.80;;;15.73;;
71753;SDS011;59593;51.716;7.016;2023-06-22T07:34:07;18.08;;;16.17;;
71753;SDS011;59593;51.716;7.016;2023-06-22T07:36:32;18.30;;;16.35;;
71753;SDS011;59593;51.716;7.016;2023-06-22T07:39:00;17.70;;;15.77;;
71753;SDS011;59593;51.716;7.016;2023-06-22T07:41:27;18.45;;;16.55;;
71753;SDS011;59593;51.716;7.016;2023-06-22T07:43:53;17.92;;;16.02;;
71753;SDS011;59593;51.716;7.016;2023-06-22T07:46:18;21.25;;;17.40;;
71753;SDS011;59593;51.716;7.016;2023-06-22T07:48:44;18.80;;;16.98;;
71753;SDS011;59593;51.716;7.016;2023-06-22T07:51:10;17.88;;;16.17;;
71753;SDS011;59593;51.716;7.016;2023-06-22T07:53:39;17.27;;;15.43;;
71753;SDS011;59593;51.716;7.016;2023-06-22T07:56:10;18.58;;;16.67;;
71753;SDS011;59593;51.716;7.016;2023-06-22T07:58:36;17.60;;;15.93;;
71753;SDS011;59593;51.716;7.016;2023-06-22T08:01:02;17.00;;;15.30;;
71753;SDS011;59593;51.716;7.016;2023-06-22T08:03:28;16.92;;;15.32;;
71753;SDS011;59593;51.716;7.016;2023-06-22T08:05:54;17.75;;;15.85;;
71753;SDS011;59593;51.716;7.016;2023-06-22T08:08:19;17.15;;;15.35;;
71753;SDS011;59593;51.716;7.016;2023-06-22T08:10:45;17.02;;;15.25;;
71753;SDS011;59593;51.716;7.016;2023-06-22T08:13:11;17.35;;;15.48;;
71753;SDS011;59593;51.716;7.016;2023-06-22T08:15:36;16.70;;;15.02;;
71753;SDS011;59593;51.716;7.016;2023-06-22T08:18:02;18.52;;;16.63;;
71753;SDS011;59593;51.716;7.016;2023-06-22T08:20:28;18.98;;;17.10;;
71753;SDS011;59593;51.716;7.016;2023-06-22T08:22:56;18.10;;;16.35;;
71753;SDS011;59593;51.716;7.016;2023-06-22T08:25:23;19.40;;;17.35;;
71753;SDS011;59593;51.716;7.016;2023-06-22T08:27:48;19.58;;;17.48;;
71753;SDS011;59593;51.716;7.016;2023-06-22T08:30:14;18.35;;;16.42;;
71753;SDS011;59593;51.716;7.016;2023-06-22T08:32:41;19.05;;;17.25;;
71753;SDS011;59593;51.716;7.016;2023-06-22T08:35:06;20.35;;;17.42;;
71753;SDS011;59593;51.716;7.016;2023-06-22T08:37:33;20.50;;;17.55;;
71753;SDS011;59593;51.716;7.016;2023-06-22T08:40:00;18.05;;;16.30;;
71753;SDS011;59593;51.716;7.016;2023-06-22T08:42:31;18.55;;;15.85;;
71753;SDS011;59593;51.716;7.016;2023-06-22T08:44:57;17.63;;;15.93;;
71753;SDS011;59593;51.716;7.016;2023-06-22T08:47:23;18.02;;;16.25;;
71753;SDS011;59593;51.716;7.016;2023-06-22T08:49:49;17.20;;;15.50;;
71753;SDS011;59593;51.716;7.016;2023-06-22T08:52:14;18.15;;;16.25;;
71753;SDS011;59593;51.716;7.016;2023-06-22T08:54:40;18.05;;;16.20;;
71753;SDS011;59593;51.716;7.016;2023-06-22T08:57:06;17.88;;;16.08;;
71753;SDS011;59593;51.716;7.016;2023-06-22T08:59:31;16.55;;;14.90;;
71753;SDS011;59593;51.716;7.016;2023-06-22T09:01:57;17.30;;;15.68;;
71753;SDS011;59593;51.716;7.016;2023-06-22T09:04:23;17.00;;;15.27;;
71753;SDS011;59593;51.716;7.016;2023-06-22T09:06:49;16.83;;;14.98;;
71753;SDS011;59593;51.716;7.016;2023-06-22T09:09:17;16.52;;;15.00;;
71753;SDS011;59593;51.716;7.016;2023-06-22T09:11:43;19.17;;;15.88;;
71753;SDS011;59593;51.716;7.016;2023-06-22T09:14:09;17.33;;;15.63;;
71753;SDS011;59593;51.716;7.016;2023-06-22T09:16:35;15.55;;;13.98;;
71753;SDS011;59593;51.716;7.016;2023-06-22T09:19:01;16.75;;;14.98;;
71753;SDS011;59593;51.716;7.016;2023-06-22T09:21:30;14.63;;;13.23;;
71753;SDS011;59593;51.716;7.016;2023-06-22T09:23:58;16.92;;;14.60;;
71753;SDS011;59593;51.716;7.016;2023-06-22T09:26:24;16.77;;;14.68;;
71753;SDS011;59593;51.716;7.016;2023-06-22T09:28:49;15.70;;;14.10;;
71753;SDS011;59593;51.716;7.016;2023-06-22T09:31:15;16.88;;;14.50;;
71753;SDS011;59593;51.716;7.016;2023-06-22T09:33:41;15.80;;;14.18;;
71753;SDS011;59593;51.716;7.016;2023-06-22T09:36:07;15.98;;;14.10;;
71753;SDS011;59593;51.716;7.016;2023-06-22T09:38:36;15.13;;;13.65;;
71753;SDS011;59593;51.716;7.016;2023-06-22T09:41:03;16.33;;;14.63;;
71753;SDS011;59593;51.716;7.016;2023-06-22T09:43:29;18.42;;;15.20;;
71753;SDS011;59593;51.716;7.016;2023-06-22T09:45:56;18.27;;;15.52;;
71753;SDS011;59593;51.716;7.016;2023-06-22T09:48:21;17.90;;;16.00;;
71753;SDS011;59593;51.716;7.016;2023-06-22T09:50:47;16.15;;;14.57;;
71753;SDS011;59593;51.716;7.016;2023-06-22T09:53:12;15.70;;;14.18;;
71753;SDS011;59593;51.716;7.016;2023-06-22T09:55:38;15.13;;;13.65;;
71753;SDS011;59593;51.716;7.016;2023-06-22T09:58:04;14.65;;;13.15;;
71753;SDS011;59593;51.716;7.016;2023-06-22T10:00:29;16.65;;;14.95;;
71753;SDS011;59593;51.716;7.016;2023-06-22T10:02:55;16.45;;;14.77;;
71753;SDS011;59593;51.716;7.016;2023-06-22T10:05:21;17.48;;;13.45;;
71753;SDS011;59593;51.716;7.016;2023-06-22T10:07:47;14.68;;;13.18;;
71753;SDS011;59593;51.716;7.016;2023-06-22T10:10:13;14.68;;;13.18;;
71753;SDS011;59593;51.716;7.016;2023-06-22T10:12:44;14.32;;;12.82;;
71753;SDS011;59593;51.716;7.016;2023-06-22T10:15:11;15.15;;;13.63;;
71753;SDS011;59593;51.716;7.016;2023-06-22T10:17:37;14.20;;;12.80;;
71753;SDS011;59593;51.716;7.016;2023-06-22T10:20:03;13.82;;;12.52;;
71753;SDS011;59593;51.716;7.016;2023-06-22T10:22:37;16.35;;;13.20;;
71753;SDS011;59593;51.716;7.016;2023-06-22T10:25:06;15.40;;;13.77;;
71753;SDS011;59593;51.716;7.016;2023-06-22T10:27:32;14.35;;;12.85;;
71753;SDS011;59593;51.716;7.016;2023-06-22T10:29:58;12.88;;;11.65;;
71753;SDS011;59593;51.716;7.016;2023-06-22T10:32:23;14.15;;;11.85;;
71753;SDS011;59593;51.716;7.016;2023-06-22T10:34:49;17.63;;;12.20;;
71753;SDS011;59593;51.716;7.016;2023-06-22T10:37:15;12.63;;;11.38;;
71753;SDS011;59593;51.716;7.016;2023-06-22T10:39:40;13.43;;;12.02;;
71753;SDS011;59593;51.716;7.016;2023-06-22T10:42:06;13.10;;;11.80;;
71753;SDS011;59593;51.716;7.016;2023-06-22T10:44:32;11.65;;;10.55;;
71753;SDS011;59593;51.716;7.016;2023-06-22T10:46:58;11.52;;;10.45;;
71753;SDS011;59593;51.716;7.016;2023-06-22T10:49:23;12.77;;;11.48;;
71753;SDS011;59593;51.716;7.016;2023-06-22T10:51:52;11.77;;;10.48;;
71753;SDS011;59593;51.716;7.016;2023-06-22T10:54:17;12.73;;;11.43;;
71753;SDS011;59593;51.716;7.016;2023-06-22T10:56:44;11.40;;;9.30;;
71753;SDS011;59593;51.716;7.016;2023-06-22T10:59:09;10.57;;;9.57;;
71753;SDS011;59593;51.716;7.016;2023-06-22T11:01:35;10.20;;;9.20;;
71753;SDS011;59593;51.716;7.016;2023-06-22T11:04:01;10.82;;;9.75;;
71753;SDS011;59593;51.716;7.016;2023-06-22T11:06:27;9.68;;;8.70;;
71753;SDS011;59593;51.716;7.016;2023-06-22T11:08:53;9.68;;;8.27;;
71753;SDS011;59593;51.716;7.016;2023-06-22T11:11:18;9.70;;;8.07;;
71753;SDS011;59593;51.716;7.016;2023-06-22T11:13:44;14.88;;;7.68;;
71753;SDS011;59593;51.716;7.016;2023-06-22T11:16:10;8.82;;;8.00;;
71753;SDS011;59593;51.716;7.016;2023-06-22T11:18:36;9.48;;;8.60;;
71753;SDS011;59593;51.716;7.016;2023-06-22T11:21:01;8.85;;;8.00;;
71753;SDS011;59593;51.716;7.016;2023-06-22T11:23:27;9.20;;;8.30;;
71753;SDS011;59593;51.716;7.016;2023-06-22T11:25:53;9.90;;;8.20;;
71753;SDS011;59593;51.716;7.016;2023-06-22T11:28:19;10.05;;;9.05;;
71753;SDS011;59593;51.716;7.016;2023-06-22T11:30:45;10.38;;;9.38;;
71753;SDS011;59593;51.716;7.016;2023-06-22T11:33:11;9.88;;;8.88;;
71753;SDS011;59593;51.716;7.016;2023-06-22T11:35:36;10.80;;;9.68;;
71753;SDS011;59593;51.716;7.016;2023-06-22T11:38:02;14.45;;;10.00;;
71753;SDS011;59593;51.716;7.016;2023-06-22T11:40:29;10.23;;;9.15;;
71753;SDS011;59593;51.716;7.016;2023-06-22T11:42:54;10.57;;;9.48;;
71753;SDS011;59593;51.716;7.016;2023-06-22T11:45:20;11.38;;;10.23;;
71753;SDS011;59593;51.716;7.016;2023-06-22T11:47:46;11.18;;;10.13;;
71753;SDS011;59593;51.716;7.016;2023-06-22T11:50:12;11.45;;;10.40;;
71753;SDS011;59593;51.716;7.016;2023-06-22T11:52:37;11.70;;;10.60;;
71753;SDS011;59593;51.716;7.016;2023-06-22T11:55:04;15.10;;;11.88;;
71753;SDS011;59593;51.716;7.016;2023-06-22T11:57:38;12.40;;;11.10;;
71753;SDS011;59593;51.716;7.016;2023-06-22T12:00:16;14.88;;;11.10;;
71753;SDS011;59593;51.716;7.016;2023-06-22T12:02:43;12.68;;;11.27;;
71753;SDS011;59593;51.716;7.016;2023-06-22T12:05:10;15.88;;;13.82;;
71753;SDS011;59593;51.716;7.016;2023-06-22T12:07:36;16.05;;;13.10;;
71753;SDS011;59593;51.716;7.016;2023-06-22T12:10:02;15.70;;;14.20;;
71753;SDS011;59593;51.716;7.016;2023-06-22T12:12:28;15.32;;;13.65;;
71753;SDS011;59593;51.716;7.016;2023-06-22T12:14:54;16.05;;;14.55;;
71753;SDS011;59593;51.716;7.016;2023-06-22T12:17:19;16.73;;;15.02;;
71753;SDS011;59593;51.716;7.016;2023-06-22T12:19:45;17.02;;;15.32;;
71753;SDS011;59593;51.716;7.016;2023-06-22T12:22:10;17.52;;;15.35;;
71753;SDS011;59593;51.716;7.016;2023-06-22T12:24:36;18.60;;;16.67;;
71753;SDS011;59593;51.716;7.016;2023-06-22T12:27:01;19.73;;;17.75;;
71753;SDS011;59593;51.716;7.016;2023-06-22T12:29:28;20.40;;;18.40;;
71753;SDS011;59593;51.716;7.016;2023-06-22T12:31:54;22.10;;;18.42;;
71753;SDS011;59593;51.716;7.016;2023-06-22T12:34:19;22.17;;;18.58;;
71753;SDS011;59593;51.716;7.016;2023-06-22T12:36:45;22.55;;;20.15;;
71753;SDS011;59593;51.716;7.016;2023-06-22T12:39:14;22.85;;;20.45;;
71753;SDS011;59593;51.716;7.016;2023-06-22T12:41:40;22.95;;;20.52;;
71753;SDS011;59593;51.716;7.016;2023-06-22T12:44:05;22.92;;;20.77;;
71753;SDS011;59593;51.716;7.016;2023-06-22T12:46:31;22.42;;;20.25;;
71753;SDS011;59593;51.716;7.016;2023-06-22T12:49:02;22.58;;;20.30;;
71753;SDS011;59593;51.716;7.016;2023-06-22T12:51:29;24.73;;;21.70;;
71753;SDS011;59593;51.716;7.016;2023-06-22T12:53:54;25.15;;;22.55;;
71753;SDS011;59593;51.716;7.016;2023-06-22T12:56:20;24.60;;;21.92;;
71753;SDS011;59593;51.716;7.016;2023-06-22T12:58:46;23.95;;;21.70;;
71753;SDS011;59593;51.716;7.016;2023-06-22T13:01:11;24.02;;;21.73;;
71753;SDS011;59593;51.716;7.016;2023-06-22T13:03:37;25.63;;;22.50;;
71753;SDS011;59593;51.716;7.016;2023-06-22T13:06:03;27.08;;;24.30;;
71753;SDS011;59593;51.716;7.016;2023-06-22T13:08:29;26.25;;;23.75;;
71753;SDS011;59593;51.716;7.016;2023-06-22T13:10:55;29.40;;;26.40;;
71753;SDS011;59593;51.716;7.016;2023-06-22T13:13:23;28.73;;;26.02;;
71753;SDS011;59593;51.716;7.016;2023-06-22T13:15:50;30.02;;;26.92;;
71753;SDS011;59593;51.716;7.016;2023-06-22T13:18:17;28.38;;;25.58;;
71753;SDS011;59593;51.716;7.016;2023-06-22T13:20:43;29.30;;;26.40;;
71753;SDS011;59593;51.716;7.016;2023-06-22T13:23:10;29.40;;;26.50;;
71753;SDS011;59593;51.716;7.016;2023-06-22T13:25:36;29.80;;;27.08;;
71753;SDS011;59593;51.716;7.016;2023-06-22T13:28:02;30.05;;;27.15;;
71753;SDS011;59593;51.716;7.016;2023-06-22T13:30:28;29.70;;;26.80;;
71753;SDS011;59593;51.716;7.016;2023-06-22T13:32:54;29.98;;;27.17;;
71753;SDS011;59593;51.716;7.016;2023-06-22T13:35:20;30.17;;;27.27;;
71753;SDS011;59593;51.716;7.016;2023-06-22T13:37:46;30.85;;;27.73;;
71753;SDS011;59593;51.716;7.016;2023-06-22T13:40:11;30.50;;;27.60;;
71753;SDS011;59593;51.716;7.016;2023-06-22T13:42:37;30.60;;;27.65;;
71753;SDS011;59593;51.716;7.016;2023-06-22T13:45:03;32.15;;;28.75;;
71753;SDS011;59593;51.716;7.016;2023-06-22T13:47:29;30.08;;;27.17;;
71753;SDS011;59593;51.716;7.016;2023-06-22T13:49:55;31.15;;;28.00;;
71753;SDS011;59593;51.716;7.016;2023-06-22T13:52:22;29.83;;;27.00;;
71753;SDS011;59593;51.716;7.016;2023-06-22T13:54:48;28.98;;;26.27;;
71753;SDS011;59593;51.716;7.016;2023-06-22T13:57:17;30.50;;;27.40;;
71753;SDS011;59593;51.716;7.016;2023-06-22T13:59:42;30.73;;;27.83;;
71753;SDS011;59593;51.716;7.016;2023-06-22T14:02:08;30.02;;;27.27;;
71753;SDS011;59593;51.716;7.016;2023-06-22T14:04:33;31.92;;;27.73;;
71753;SDS011;59593;51.716;7.016;2023-06-22T14:07:02;30.70;;;27.42;;
71753;SDS011;59593;51.716;7.016;2023-06-22T14:09:31;29.30;;;26.38;;
71753;SDS011;59593;51.716;7.016;2023-06-22T14:12:09;29.70;;;26.75;;
71753;SDS011;59593;51.716;7.016;2023-06-22T14:14:35;29.23;;;26.42;;
71753;SDS011;59593;51.716;7.016;2023-06-22T14:17:01;29.80;;;26.90;;
71753;SDS011;59593;51.716;7.016;2023-06-22T14:19:26;28.90;;;25.92;;
71753;SDS011;59593;51.716;7.016;2023-06-22T14:21:52;29.45;;;26.60;;
71753;SDS011;59593;51.716;7.016;2023-06-22T14:24:18;29.88;;;26.90;;
